createdAt,value
2023-02-24T00:02:00.434Z,-3.95
2023-02-24T00:04:30.162Z,-3.95
2023-02-24T00:06:58.157Z,-3.93
2023-02-24T00:09:27.260Z,-3.83
2023-02-24T00:12:00.245Z,-3.74
2023-02-24T00:14:29.970Z,-3.66
2023-02-24T00:16:59.045Z,-3.65
2023-02-24T00:19:29.764Z,-3.75
2023-02-24T00:21:59.060Z,-3.81
2023-02-24T00:24:27.114Z,-3.86
2023-02-24T00:26:56.497Z,-3.94
2023-02-24T00:29:27.720Z,-4.05
2023-02-24T00:31:57.144Z,-4.10
2023-02-24T00:34:26.000Z,-4.17
2023-02-24T00:36:57.724Z,-4.19
2023-02-24T00:39:34.087Z,-4.16
2023-02-24T00:42:06.823Z,-4.10
2023-02-24T00:44:46.084Z,-4.09
2023-02-24T00:47:18.430Z,-3.95
2023-02-24T00:49:46.644Z,-3.89
2023-02-24T00:52:16.603Z,-3.93
2023-02-24T00:54:44.760Z,-4.03
2023-02-24T00:57:13.296Z,-4.03
2023-02-24T00:59:41.178Z,-3.96
2023-02-24T01:02:09.072Z,-3.93
2023-02-24T01:04:38.627Z,-4.10
2023-02-24T01:07:11.410Z,-4.16
2023-02-24T01:09:40.645Z,-4.24
2023-02-24T01:12:19.438Z,-4.16
2023-02-24T01:14:48.077Z,-4.11
2023-02-24T01:17:17.208Z,-3.96
2023-02-24T01:19:45.728Z,-3.80
2023-02-24T01:22:15.303Z,-3.68
2023-02-24T01:24:44.234Z,-3.55
2023-02-24T01:27:18.152Z,-3.50
2023-02-24T01:29:47.392Z,-3.46
2023-02-24T01:32:17.735Z,-3.44
2023-02-24T01:34:46.503Z,-3.52
2023-02-24T01:37:17.895Z,-3.40
2023-02-24T01:39:46.581Z,-3.49
2023-02-24T01:42:20.941Z,-3.54
2023-02-24T01:44:49.326Z,-3.58
2023-02-24T01:47:18.941Z,-3.54
2023-02-24T01:49:48.156Z,-3.38
2023-02-24T01:52:31.193Z,-3.18
2023-02-24T01:55:15.409Z,-3.11
2023-02-24T01:57:43.833Z,-2.92
2023-02-24T02:00:19.831Z,-2.88
2023-02-24T02:02:50.886Z,-2.76
2023-02-24T02:05:19.444Z,-2.62
2023-02-24T02:07:47.532Z,-2.65
2023-02-24T02:10:18.979Z,-2.61
2023-02-24T02:12:47.119Z,-2.57
2023-02-24T02:15:17.175Z,-2.56
2023-02-24T02:18:04.502Z,-2.42
2023-02-24T02:20:54.166Z,-2.38
2023-02-24T02:23:56.152Z,-2.30
2023-02-24T02:26:54.446Z,-2.23
2023-02-24T02:29:37.507Z,-2.17
2023-02-24T02:32:38.796Z,-2.07
2023-02-24T02:35:13.865Z,-2.00
2023-02-24T02:37:57.514Z,-2.01
2023-02-24T02:40:40.123Z,-1.95
2023-02-24T02:43:31.791Z,-1.90
2023-02-24T02:46:06.920Z,-1.78
2023-02-24T02:48:44.340Z,-1.81
2023-02-24T02:51:13.716Z,-1.77
2023-02-24T02:54:12.953Z,-1.77
2023-02-24T02:56:43.495Z,-1.78
2023-02-24T02:59:13.151Z,-1.65
2023-02-24T03:01:44.250Z,-1.54
2023-02-24T03:04:13.554Z,-1.44
2023-02-24T03:06:57.125Z,-1.43
2023-02-24T03:09:29.886Z,-1.41
2023-02-24T03:12:08.440Z,-1.33
2023-02-24T03:14:39.604Z,-1.36
2023-02-24T03:17:13.281Z,-1.29
2023-02-24T03:19:41.516Z,-1.13
2023-02-24T03:22:15.284Z,-1.11
2023-02-24T03:24:46.441Z,-1.12
2023-02-24T03:27:48.825Z,-1.07
2023-02-24T03:30:23.458Z,-1.14
2023-02-24T03:33:03.930Z,-1.05
2023-02-24T03:35:34.874Z,-1.02
2023-02-24T03:38:03.672Z,-1.01
2023-02-24T03:40:36.404Z,-0.91
2023-02-24T03:43:09.009Z,-0.83
2023-02-24T03:45:38.923Z,-0.63
2023-02-24T03:48:08.623Z,-0.59
2023-02-24T03:50:38.491Z,-0.71
2023-02-24T03:53:31.993Z,-0.53
2023-02-24T03:56:26.196Z,-0.54
2023-02-24T03:59:06.082Z,-0.59
2023-02-24T04:01:42.661Z,-0.43
2023-02-24T04:04:17.787Z,-0.56
2023-02-24T04:07:03.321Z,-0.71
2023-02-24T04:09:38.824Z,-0.50
2023-02-24T04:12:43.221Z,-0.42
2023-02-24T04:15:24.364Z,-0.48
2023-02-24T04:17:58.007Z,-0.39
2023-02-24T04:20:33.067Z,-0.41
2023-02-24T04:23:04.097Z,-0.26
2023-02-24T04:25:32.862Z,-0.19
2023-02-24T04:28:01.644Z,-0.20
2023-02-24T04:30:34.611Z,-0.36
2023-02-24T04:33:03.358Z,-0.49
2023-02-24T04:35:31.979Z,-0.31
2023-02-24T04:38:00.232Z,-0.43
2023-02-24T04:40:29.489Z,-0.41
2023-02-24T04:42:57.970Z,-0.22
2023-02-24T04:45:28.447Z,-0.10
2023-02-24T04:48:01.389Z,0.02
2023-02-24T04:50:34.876Z,0.17
2023-02-24T04:53:11.625Z,0.10
2023-02-24T04:55:43.153Z,-0.07
2023-02-24T04:58:12.669Z,-0.29
2023-02-24T05:00:42.318Z,-0.46
2023-02-24T05:03:12.812Z,-0.55
2023-02-24T05:05:43.285Z,-0.68
2023-02-24T05:08:11.574Z,-0.73
2023-02-24T05:10:47.016Z,-0.74
2023-02-24T05:13:19.720Z,-0.68
2023-02-24T05:15:48.661Z,-0.61
2023-02-24T05:18:24.358Z,-0.40
2023-02-24T05:21:14.673Z,0.06
2023-02-24T05:23:47.386Z,0.36
2023-02-24T05:26:17.435Z,0.58
2023-02-24T05:28:53.071Z,0.74
2023-02-24T05:31:26.798Z,1.09
2023-02-24T05:33:59.937Z,1.59
2023-02-24T05:36:40.840Z,1.97
2023-02-24T05:39:12.890Z,1.83
2023-02-24T05:41:42.475Z,1.70
2023-02-24T05:44:16.585Z,1.45
2023-02-24T05:46:46.293Z,1.31
2023-02-24T05:49:22.521Z,1.25
2023-02-24T05:51:55.337Z,1.14
2023-02-24T05:54:24.754Z,1.04
2023-02-24T05:56:52.984Z,0.74
2023-02-24T05:59:22.277Z,0.64
2023-02-24T06:01:53.553Z,0.52
2023-02-24T06:04:24.345Z,0.70
2023-02-24T06:06:55.183Z,0.78
2023-02-24T06:09:23.930Z,0.94
2023-02-24T06:11:52.063Z,1.09
2023-02-24T06:14:22.166Z,1.04
2023-02-24T06:16:51.718Z,0.95
2023-02-24T06:19:21.077Z,1.19
2023-02-24T06:21:49.124Z,1.48
2023-02-24T06:24:18.817Z,1.44
2023-02-24T06:26:46.890Z,1.17
2023-02-24T06:29:15.782Z,1.03
2023-02-24T06:31:44.614Z,1.08
2023-02-24T06:34:13.606Z,1.16
2023-02-24T06:36:42.467Z,1.38
2023-02-24T06:39:15.034Z,1.77
2023-02-24T06:41:43.259Z,2.22
2023-02-24T06:44:11.525Z,2.26
2023-02-24T06:46:39.435Z,2.15
2023-02-24T06:49:08.362Z,1.90
2023-02-24T06:51:36.642Z,2.16
2023-02-24T06:54:06.922Z,2.36
2023-02-24T06:56:39.147Z,2.18
2023-02-24T06:59:07.449Z,1.84
2023-02-24T07:01:36.227Z,1.64
2023-02-24T07:04:26.409Z,1.33
2023-02-24T07:06:58.367Z,0.89
2023-02-24T07:09:27.508Z,0.63
2023-02-24T07:11:57.178Z,0.62
2023-02-24T07:14:27.224Z,0.84
2023-02-24T07:16:55.791Z,1.33
2023-02-24T07:19:26.407Z,1.92
2023-02-24T07:22:02.488Z,2.32
2023-02-24T07:24:37.042Z,2.60
2023-02-24T07:27:11.586Z,2.58
2023-02-24T07:29:39.773Z,2.60
2023-02-24T07:32:09.317Z,2.77
2023-02-24T07:34:40.767Z,2.98
2023-02-24T07:37:09.996Z,2.73
2023-02-24T07:39:38.998Z,2.57
2023-02-24T07:42:08.361Z,2.49
2023-02-24T07:44:49.755Z,2.08
2023-02-24T07:47:17.792Z,1.72
2023-02-24T07:49:46.162Z,1.49
2023-02-24T07:52:14.140Z,1.33
2023-02-24T07:54:42.670Z,1.05
2023-02-24T07:57:14.473Z,1.06
2023-02-24T07:59:45.652Z,1.10
2023-02-24T08:02:14.273Z,0.98
2023-02-24T08:04:48.923Z,1.03
2023-02-24T08:07:25.344Z,1.01
2023-02-24T08:10:14.887Z,0.87
2023-02-24T08:12:43.159Z,0.79
2023-02-24T08:15:17.731Z,0.51
2023-02-24T08:17:47.814Z,0.32
2023-02-24T08:20:16.564Z,0.16
2023-02-24T08:22:47.245Z,-0.09
2023-02-24T08:25:19.411Z,-0.32
2023-02-24T08:28:08.770Z,-0.52
2023-02-24T08:30:40.700Z,-0.62
2023-02-24T08:33:11.536Z,-0.72
2023-02-24T08:35:45.396Z,-0.86
2023-02-24T08:38:18.426Z,-1.02
2023-02-24T08:40:52.246Z,-1.13
2023-02-24T08:43:30.454Z,-1.17
2023-02-24T08:46:18.906Z,-1.27
2023-02-24T08:48:49.628Z,-1.34
2023-02-24T08:51:31.732Z,-1.46
2023-02-24T08:54:01.840Z,-1.47
2023-02-24T08:56:35.066Z,-1.54
2023-02-24T08:59:08.077Z,-1.55
2023-02-24T09:01:40.583Z,-1.46
2023-02-24T09:04:12.419Z,-1.44
2023-02-24T09:06:51.253Z,-1.40
2023-02-24T09:09:23.476Z,-1.45
2023-02-24T09:11:59.032Z,-1.38
2023-02-24T09:14:29.536Z,-1.35
2023-02-24T09:17:30.782Z,-1.27
2023-02-24T09:20:18.174Z,-1.16
2023-02-24T09:22:58.140Z,-1.12
2023-02-24T09:25:41.094Z,-1.05
2023-02-24T09:28:20.325Z,-0.99
2023-02-24T09:30:51.821Z,-0.95
2023-02-24T09:33:39.519Z,-0.96
2023-02-24T09:36:20.685Z,-0.99
2023-02-24T09:39:00.158Z,-0.94
2023-02-24T09:41:54.937Z,-0.88
2023-02-24T09:44:40.013Z,-0.91
2023-02-24T09:47:49.557Z,-0.95
2023-02-24T09:50:40.635Z,-0.96
2023-02-24T09:53:19.761Z,-1.04
2023-02-24T09:56:07.185Z,-1.09
2023-02-24T09:59:13.433Z,-1.16
2023-02-24T10:01:57.349Z,-1.31
2023-02-24T10:04:40.982Z,-1.43
2023-02-24T10:07:17.273Z,-1.48
2023-02-24T10:09:50.778Z,-1.55
2023-02-24T10:12:32.247Z,-1.59
2023-02-24T10:15:41.958Z,-1.60
2023-02-24T10:18:39.163Z,-1.61
2023-02-24T10:21:19.289Z,-1.62
2023-02-24T10:24:02.666Z,-1.62
2023-02-24T10:26:32.406Z,-1.60
2023-02-24T10:29:39.527Z,-1.64
2023-02-24T10:32:32.352Z,-1.55
2023-02-24T10:35:04.136Z,-1.50
2023-02-24T10:37:32.509Z,-1.52
2023-02-24T10:40:10.362Z,-1.54
2023-02-24T10:42:46.160Z,-1.64
2023-02-24T10:45:23.872Z,-1.72
2023-02-24T10:47:59.291Z,-1.86
2023-02-24T10:50:34.747Z,-1.93
2023-02-24T10:53:08.037Z,-2.04
2023-02-24T10:55:44.893Z,-2.09
2023-02-24T10:58:28.373Z,-2.22
2023-02-24T11:01:13.768Z,-2.36
2023-02-24T11:04:24.372Z,-2.35
2023-02-24T11:06:58.519Z,-2.36
2023-02-24T11:09:30.386Z,-2.35
2023-02-24T11:12:34.229Z,-2.34
2023-02-24T11:15:22.833Z,-2.42
2023-02-24T11:17:57.366Z,-2.36
2023-02-24T11:20:47.709Z,-2.32
2023-02-24T11:23:26.661Z,-2.32
2023-02-24T11:26:01.930Z,-2.31
2023-02-24T11:28:39.524Z,-2.29
2023-02-24T11:31:33.464Z,-2.29
2023-02-24T11:34:05.581Z,-2.36
2023-02-24T11:37:09.860Z,-2.36
2023-02-24T11:40:00.785Z,-2.39
2023-02-24T11:42:47.590Z,-2.42
2023-02-24T11:45:49.920Z,-2.42
2023-02-24T11:48:30.094Z,-2.45
2023-02-24T11:51:06.503Z,-2.43
2023-02-24T11:53:47.518Z,-2.47
2023-02-24T11:56:29.288Z,-2.48
2023-02-24T11:59:05.666Z,-2.43
2023-02-24T12:01:34.284Z,-2.44
2023-02-24T12:04:24.836Z,-2.43
2023-02-24T12:06:58.671Z,-2.42
2023-02-24T12:09:29.616Z,-2.46
2023-02-24T12:12:18.610Z,-2.39
2023-02-24T12:14:56.698Z,-2.41
2023-02-24T12:17:58.747Z,-2.48
2023-02-24T12:20:31.347Z,-2.55
2023-02-24T12:23:16.425Z,-2.62
2023-02-24T12:26:09.464Z,-2.59
2023-02-24T12:29:00.878Z,-2.61
2023-02-24T12:31:54.949Z,-2.71
2023-02-24T12:35:00.314Z,-2.73
2023-02-24T12:37:31.795Z,-2.79
2023-02-24T12:40:02.765Z,-2.84
2023-02-24T12:43:14.496Z,-2.94
2023-02-24T12:46:24.259Z,-2.94
2023-02-24T12:49:13.648Z,-3.04
2023-02-24T12:51:44.304Z,-3.11
2023-02-24T12:54:29.919Z,-3.22
2023-02-24T12:57:24.228Z,-3.24
2023-02-24T12:59:52.244Z,-3.28
2023-02-24T13:02:45.591Z,-3.34
2023-02-24T13:05:29.908Z,-3.36
2023-02-24T13:08:13.374Z,-3.37
2023-02-24T13:11:00.403Z,-3.46
2023-02-24T13:13:33.762Z,-3.50
2023-02-24T13:16:02.398Z,-3.45
2023-02-24T13:18:34.528Z,-3.55
2023-02-24T13:21:16.511Z,-3.52
2023-02-24T13:23:55.784Z,-3.57
2023-02-24T13:26:26.086Z,-3.54
2023-02-24T13:29:14.498Z,-3.59
2023-02-24T13:31:49.874Z,-3.52
2023-02-24T13:34:31.785Z,-3.56
2023-02-24T13:37:00.086Z,-3.60
2023-02-24T13:39:36.437Z,-3.63
2023-02-24T13:42:24.883Z,-3.61
2023-02-24T13:44:54.451Z,-3.73
2023-02-24T13:47:36.352Z,-3.74
2023-02-24T13:50:21.273Z,-3.81
2023-02-24T13:53:26.329Z,-3.86
2023-02-24T13:56:27.804Z,-3.95
2023-02-24T13:59:25.156Z,-4.00
2023-02-24T14:02:01.467Z,-4.08
2023-02-24T14:04:32.101Z,-4.13
2023-02-24T14:07:03.883Z,-4.25
2023-02-24T14:09:34.718Z,-4.30
2023-02-24T14:12:13.399Z,-4.33
2023-02-24T14:14:43.395Z,-4.36
2023-02-24T14:17:28.749Z,-4.43
2023-02-24T14:20:12.357Z,-4.38
2023-02-24T14:22:45.661Z,-4.46
2023-02-24T14:25:13.863Z,-4.54
2023-02-24T14:27:44.255Z,-4.58
2023-02-24T14:30:34.052Z,-4.60
2023-02-24T14:33:03.002Z,-4.66
2023-02-24T14:35:43.763Z,-4.75
2023-02-24T14:38:39.659Z,-4.67
2023-02-24T14:41:24.579Z,-4.73
2023-02-24T14:43:52.875Z,-4.85
2023-02-24T14:46:21.675Z,-4.95
2023-02-24T14:48:55.072Z,-4.89
2023-02-24T14:51:34.478Z,-4.91
2023-02-24T14:54:04.560Z,-4.91
2023-02-24T14:56:33.890Z,-4.97
2023-02-24T14:59:06.581Z,-4.96
2023-02-24T15:01:37.500Z,-4.98
2023-02-24T15:04:24.551Z,-4.99
2023-02-24T15:06:52.984Z,-5.05
2023-02-24T15:09:22.733Z,-5.03
2023-02-24T15:11:51.275Z,-5.06
2023-02-24T15:14:21.941Z,-5.05
2023-02-24T15:16:52.640Z,-5.06
2023-02-24T15:19:38.285Z,-5.01
2023-02-24T15:22:23.424Z,-4.98
2023-02-24T15:24:52.498Z,-4.97
2023-02-24T15:27:22.601Z,-5.00
2023-02-24T15:30:08.656Z,-4.88
2023-02-24T15:32:38.511Z,-4.86
2023-02-24T15:35:08.366Z,-4.85
2023-02-24T15:37:42.575Z,-4.83
2023-02-24T15:40:19.294Z,-4.79
2023-02-24T15:43:09.018Z,-4.83
2023-02-24T15:45:39.110Z,-4.68
2023-02-24T15:48:21.475Z,-4.63
2023-02-24T15:50:50.654Z,-4.53
2023-02-24T15:53:18.698Z,-4.51
2023-02-24T15:55:46.820Z,-4.57
2023-02-24T15:58:17.795Z,-4.56
2023-02-24T16:00:46.551Z,-4.53
2023-02-24T16:03:14.633Z,-4.52
2023-02-24T16:05:42.713Z,-4.58
2023-02-24T16:08:14.345Z,-4.63
2023-02-24T16:10:42.488Z,-4.53
2023-02-24T16:13:18.807Z,-4.47
2023-02-24T16:15:47.585Z,-4.54
2023-02-24T16:18:21.947Z,-4.55
2023-02-24T16:20:57.778Z,-4.58
2023-02-24T16:23:26.452Z,-4.57
2023-02-24T16:25:59.308Z,-4.56
2023-02-24T16:28:27.500Z,-4.54
2023-02-24T16:30:55.676Z,-4.50
2023-02-24T16:33:24.156Z,-4.49
2023-02-24T16:35:55.661Z,-4.46
2023-02-24T16:38:27.212Z,-4.50
2023-02-24T16:40:55.355Z,-4.46
2023-02-24T16:43:23.299Z,-4.43
2023-02-24T16:45:51.551Z,-4.40
2023-02-24T16:48:23.941Z,-4.37
2023-02-24T16:50:52.275Z,-4.38
2023-02-24T16:53:23.059Z,-4.37
2023-02-24T16:55:51.511Z,-4.35
2023-02-24T16:58:19.689Z,-4.37
2023-02-24T17:00:50.585Z,-4.42
2023-02-24T17:03:22.995Z,-4.37
2023-02-24T17:05:51.196Z,-4.43
2023-02-24T17:08:19.806Z,-4.67
2023-02-24T17:10:48.214Z,-4.83
2023-02-24T17:13:18.056Z,-4.80
2023-02-24T17:15:46.741Z,-4.88
2023-02-24T17:18:14.769Z,-4.88
2023-02-24T17:20:43.157Z,-4.80
2023-02-24T17:23:11.865Z,-4.73
2023-02-24T17:25:40.089Z,-4.71
2023-02-24T17:28:08.651Z,-4.65
2023-02-24T17:30:36.734Z,-4.78
2023-02-24T17:33:05.316Z,-4.91
2023-02-24T17:35:33.311Z,-5.03
2023-02-24T17:38:01.339Z,-5.16
2023-02-24T17:40:29.604Z,-5.24
2023-02-24T17:42:58.134Z,-5.44
2023-02-24T17:45:26.120Z,-5.54
2023-02-24T17:47:54.488Z,-5.57
2023-02-24T17:50:22.431Z,-5.53
2023-02-24T17:52:51.080Z,-5.45
2023-02-24T17:55:22.928Z,-5.48
2023-02-24T17:57:51.174Z,-5.62
2023-02-24T18:00:19.602Z,-5.69
2023-02-24T18:02:47.659Z,-5.73
2023-02-24T18:05:16.425Z,-5.72
2023-02-24T18:07:44.408Z,-5.69
2023-02-24T18:10:13.071Z,-5.58
2023-02-24T18:12:41.022Z,-5.56
2023-02-24T18:15:09.810Z,-5.65
2023-02-24T18:17:38.649Z,-5.69
2023-02-24T18:20:07.770Z,-5.68
2023-02-24T18:22:35.947Z,-5.74
2023-02-24T18:25:04.034Z,-5.71
2023-02-24T18:27:32.085Z,-5.78
2023-02-24T18:30:00.720Z,-5.80
2023-02-24T18:32:29.193Z,-5.73
2023-02-24T18:34:57.336Z,-5.69
2023-02-24T18:37:25.328Z,-5.67
2023-02-24T18:39:54.146Z,-5.67
2023-02-24T18:42:22.422Z,-5.70
2023-02-24T18:44:50.595Z,-5.81
2023-02-24T18:47:18.868Z,-5.87
2023-02-24T18:49:49.194Z,-5.94
2023-02-24T18:52:17.040Z,-5.95
2023-02-24T18:54:45.059Z,-5.94
2023-02-24T18:57:13.966Z,-5.96
2023-02-24T18:59:41.837Z,-5.97
2023-02-24T19:02:13.618Z,-6.14
2023-02-24T19:04:41.815Z,-6.22
2023-02-24T19:07:09.958Z,-6.40
2023-02-24T19:09:40.224Z,-6.43
2023-02-24T19:12:09.615Z,-6.48
2023-02-24T19:14:38.126Z,-6.49
2023-02-24T19:17:06.361Z,-6.41
2023-02-24T19:19:34.250Z,-6.40
2023-02-24T19:22:02.125Z,-6.41
2023-02-24T19:24:31.202Z,-6.44
2023-02-24T19:26:59.665Z,-6.41
2023-02-24T19:29:28.225Z,-6.40
2023-02-24T19:31:58.127Z,-6.41
2023-02-24T19:34:26.681Z,-6.44
2023-02-24T19:36:54.655Z,-6.46
2023-02-24T19:39:22.888Z,-6.53
2023-02-24T19:41:51.142Z,-6.52
2023-02-24T19:44:19.133Z,-6.54
2023-02-24T19:46:47.536Z,-6.52
2023-02-24T19:49:15.519Z,-6.50
2023-02-24T19:51:46.613Z,-6.46
2023-02-24T19:54:16.886Z,-6.35
2023-02-24T19:56:44.778Z,-6.40
2023-02-24T19:59:15.819Z,-6.25
2023-02-24T20:01:44.282Z,-6.19
2023-02-24T20:04:13.271Z,-6.08
2023-02-24T20:06:43.924Z,-6.03
2023-02-24T20:09:15.792Z,-6.00
2023-02-24T20:11:44.516Z,-6.04
2023-02-24T20:14:13.493Z,-5.98
2023-02-24T20:16:42.050Z,-5.89
2023-02-24T20:19:11.928Z,-5.82
2023-02-24T20:21:40.053Z,-5.73
2023-02-24T20:24:11.487Z,-5.62
2023-02-24T20:26:41.769Z,-5.51
2023-02-24T20:29:11.695Z,-5.43
2023-02-24T20:31:40.134Z,-5.34
2023-02-24T20:34:09.968Z,-5.34
2023-02-24T20:36:38.543Z,-5.34
2023-02-24T20:39:12.850Z,-5.36
2023-02-24T20:41:41.250Z,-5.32
2023-02-24T20:44:09.889Z,-5.33
2023-02-24T20:46:38.437Z,-5.33
2023-02-24T20:49:08.284Z,-5.27
2023-02-24T20:51:37.723Z,-5.24
2023-02-24T20:54:06.258Z,-5.26
2023-02-24T20:56:36.731Z,-5.32
2023-02-24T20:59:06.740Z,-5.41
2023-02-24T21:01:35.308Z,-5.57
2023-02-24T21:04:03.956Z,-5.64
2023-02-24T21:06:32.144Z,-5.75
2023-02-24T21:09:00.382Z,-5.76
2023-02-24T21:11:30.540Z,-5.77
2023-02-24T21:13:59.045Z,-5.72
2023-02-24T21:16:27.405Z,-5.76
2023-02-24T21:18:56.553Z,-5.74
2023-02-24T21:21:24.853Z,-5.71
2023-02-24T21:23:53.032Z,-5.65
2023-02-24T21:26:21.430Z,-5.67
2023-02-24T21:28:50.019Z,-5.62
2023-02-24T21:31:20.936Z,-5.65
2023-02-24T21:33:53.244Z,-5.66
2023-02-24T21:36:22.186Z,-5.75
2023-02-24T21:38:51.787Z,-5.85
2023-02-24T21:41:20.138Z,-5.94
2023-02-24T21:43:48.614Z,-6.01
2023-02-24T21:46:16.695Z,-6.01
2023-02-24T21:48:45.120Z,-5.97
2023-02-24T21:51:14.021Z,-5.90
2023-02-24T21:53:44.451Z,-5.93
2023-02-24T21:56:22.852Z,-6.00
2023-02-24T21:58:54.935Z,-6.05
2023-02-24T22:01:32.310Z,-5.93
2023-02-24T22:04:02.711Z,-5.82
2023-02-24T22:06:31.897Z,-5.75
2023-02-24T22:09:00.827Z,-5.73
2023-02-24T22:11:29.824Z,-5.64
2023-02-24T22:13:57.806Z,-5.57
2023-02-24T22:16:26.303Z,-5.55
2023-02-24T22:18:55.695Z,-5.52
2023-02-24T22:21:26.316Z,-5.53
2023-02-24T22:23:56.286Z,-5.41
2023-02-24T22:26:25.748Z,-5.38
2023-02-24T22:28:54.807Z,-5.48
2023-02-24T22:31:25.448Z,-5.48
2023-02-24T22:33:53.832Z,-5.51
2023-02-24T22:36:27.235Z,-5.55
2023-02-24T22:38:56.362Z,-5.55
2023-02-24T22:41:26.213Z,-5.59
2023-02-24T22:43:54.786Z,-5.56
2023-02-24T22:46:33.958Z,-5.58
2023-02-24T22:49:02.234Z,-5.52
2023-02-24T22:51:30.307Z,-5.50
2023-02-24T22:53:58.225Z,-5.53
2023-02-24T22:56:27.341Z,-5.52
2023-02-24T22:58:55.937Z,-5.52
2023-02-24T23:01:28.930Z,-5.47
2023-02-24T23:04:00.210Z,-5.56
2023-02-24T23:06:28.597Z,-5.50
2023-02-24T23:08:57.709Z,-5.49
2023-02-24T23:11:30.885Z,-5.41
2023-02-24T23:14:00.747Z,-5.46
2023-02-24T23:16:32.031Z,-5.36
2023-02-24T23:19:04.712Z,-5.32
2023-02-24T23:21:39.971Z,-5.30
2023-02-24T23:24:09.723Z,-5.33
2023-02-24T23:26:41.006Z,-5.32
2023-02-24T23:29:13.079Z,-5.38
2023-02-24T23:31:42.031Z,-5.43
2023-02-24T23:34:10.750Z,-5.44
2023-02-24T23:36:41.149Z,-5.49
2023-02-24T23:39:09.517Z,-5.45
2023-02-24T23:41:38.059Z,-5.47
2023-02-24T23:44:06.425Z,-5.40
2023-02-24T23:46:35.256Z,-5.42
2023-02-24T23:49:03.530Z,-5.60
2023-02-24T23:51:46.958Z,-5.70
2023-02-24T23:54:17.527Z,-5.83
2023-02-24T23:56:45.750Z,-5.91
2023-02-24T23:59:14.254Z,-5.91
